sensor_id;sensor_type;location;lat;lon;timestamp;pressure;altitude;pressure_sealevel;temperature;humidity
74270;BME280;62754;48.252;11.654;2022-11-13T00:00:23;97239.31;;;3.40;93.04
74270;BME280;62754;48.252;11.654;2022-11-13T00:02:49;97235.84;;;3.41;93.53
74270;BME280;62754;48.252;11.654;2022-11-13T00:05:15;97232.19;;;3.48;93.31
74270;BME280;62754;48.252;11.654;2022-11-13T00:07:40;97229.75;;;3.45;93.12
74270;BME280;62754;48.252;11.654;2022-11-13T00:10:06;97225.63;;;3.42;92.59
74270;BME280;62754;48.252;11.654;2022-11-13T00:12:32;97225.19;;;3.54;92.75
74270;BME280;62754;48.252;11.654;2022-11-13T00:14:58;97221.88;;;3.52;92.81
74270;BME280;62754;48.252;11.654;2022-11-13T00:17:24;97210.88;;;3.25;93.29
74270;BME280;62754;48.252;11.654;2022-11-13T00:19:49;97206.63;;;3.26;93.34
74270;BME280;62754;48.252;11.654;2022-11-13T00:22:15;97212.53;;;3.28;92.73
74270;BME280;62754;48.252;11.654;2022-11-13T00:24:41;97205.88;;;3.24;93.07
74270;BME280;62754;48.252;11.654;2022-11-13T00:27:07;97200.59;;;3.28;93.29
74270;BME280;62754;48.252;11.654;2022-11-13T00:29:32;97209.47;;;3.17;93.05
74270;BME280;62754;48.252;11.654;2022-11-13T00:31:58;97199.41;;;3.14;93.27
74270;BME280;62754;48.252;11.654;2022-11-13T00:34:24;97199.56;;;3.34;92.81
74270;BME280;62754;48.252;11.654;2022-11-13T00:36:50;97189.09;;;3.17;92.56
74270;BME280;62754;48.252;11.654;2022-11-13T00:39:15;97196.25;;;3.06;92.76
74270;BME280;62754;48.252;11.654;2022-11-13T00:41:41;97183.13;;;2.93;93.52
74270;BME280;62754;48.252;11.654;2022-11-13T00:44:07;97186.44;;;2.95;93.88
74270;BME280;62754;48.252;11.654;2022-11-13T00:46:33;97181.97;;;3.02;93.53
74270;BME280;62754;48.252;11.654;2022-11-13T00:48:58;97180.91;;;3.09;92.71
74270;BME280;62754;48.252;11.654;2022-11-13T00:51:24;97178.56;;;3.03;92.06
74270;BME280;62754;48.252;11.654;2022-11-13T00:53:50;97171.97;;;2.97;92.70
74270;BME280;62754;48.252;11.654;2022-11-13T00:56:16;97166.91;;;2.96;92.32
74270;BME280;62754;48.252;11.654;2022-11-13T00:58:42;97166.63;;;3.05;92.71
74270;BME280;62754;48.252;11.654;2022-11-13T01:01:10;97170.66;;;2.85;92.49
74270;BME280;62754;48.252;11.654;2022-11-13T01:03:37;97166.44;;;2.84;93.20
74270;BME280;62754;48.252;11.654;2022-11-13T01:06:13;97158.06;;;2.81;92.77
74270;BME280;62754;48.252;11.654;2022-11-13T01:08:41;97161.94;;;2.93;92.93
74270;BME280;62754;48.252;11.654;2022-11-13T01:11:09;97148.06;;;2.75;93.32
74270;BME280;62754;48.252;11.654;2022-11-13T01:13:36;97152.97;;;2.81;92.67
74270;BME280;62754;48.252;11.654;2022-11-13T01:16:05;97151.06;;;2.87;93.04
74270;BME280;62754;48.252;11.654;2022-11-13T01:18:31;97139.53;;;2.77;93.08
74270;BME280;62754;48.252;11.654;2022-11-13T01:21:05;97138.69;;;2.77;92.78
74270;BME280;62754;48.252;11.654;2022-11-13T01:23:32;97135.47;;;2.72;93.23
74270;BME280;62754;48.252;11.654;2022-11-13T01:28:33;97137.63;;;2.58;93.45
74270;BME280;62754;48.252;11.654;2022-11-13T01:30:59;97133.13;;;2.66;92.67
74270;BME280;62754;48.252;11.654;2022-11-13T01:33:24;97128.03;;;2.66;92.45
74270;BME280;62754;48.252;11.654;2022-11-13T01:35:50;97137.75;;;2.53;92.98
74270;BME280;62754;48.252;11.654;2022-11-13T01:38:16;97125.91;;;2.52;93.42
74270;BME280;62754;48.252;11.654;2022-11-13T01:40:46;97117.44;;;2.52;93.05
74270;BME280;62754;48.252;11.654;2022-11-13T01:43:27;97123.09;;;2.61;93.50
74270;BME280;62754;48.252;11.654;2022-11-13T01:48:30;97122.25;;;2.61;93.40
74270;BME280;62754;48.252;11.654;2022-11-13T01:50:57;97126.00;;;2.75;92.88
74270;BME280;62754;48.252;11.654;2022-11-13T01:53:23;97105.13;;;2.66;93.70
74270;BME280;62754;48.252;11.654;2022-11-13T01:55:49;97112.03;;;2.62;93.77
74270;BME280;62754;48.252;11.654;2022-11-13T01:58:15;97113.84;;;2.59;93.86
74270;BME280;62754;48.252;11.654;2022-11-13T02:00:41;97108.44;;;2.68;93.75
74270;BME280;62754;48.252;11.654;2022-11-13T02:03:07;97099.00;;;2.71;93.06
74270;BME280;62754;48.252;11.654;2022-11-13T02:05:32;97102.66;;;2.63;93.15
74270;BME280;62754;48.252;11.654;2022-11-13T02:07:59;97099.88;;;2.70;93.10
74270;BME280;62754;48.252;11.654;2022-11-13T02:10:24;97093.41;;;2.62;92.73
74270;BME280;62754;48.252;11.654;2022-11-13T02:12:50;97102.00;;;2.58;93.20
74270;BME280;62754;48.252;11.654;2022-11-13T02:15:18;97096.50;;;2.44;94.10
74270;BME280;62754;48.252;11.654;2022-11-13T02:17:48;97095.28;;;2.55;93.20
74270;BME280;62754;48.252;11.654;2022-11-13T02:20:15;97094.06;;;2.67;93.02
74270;BME280;62754;48.252;11.654;2022-11-13T02:25:07;97093.00;;;2.74;92.62
74270;BME280;62754;48.252;11.654;2022-11-13T02:27:44;97087.16;;;2.70;92.75
74270;BME280;62754;48.252;11.654;2022-11-13T02:32:48;97082.66;;;2.78;92.90
74270;BME280;62754;48.252;11.654;2022-11-13T02:35:28;97075.38;;;2.68;93.31
74270;BME280;62754;48.252;11.654;2022-11-13T02:37:58;97073.47;;;2.48;93.34
74270;BME280;62754;48.252;11.654;2022-11-13T02:40:24;97074.94;;;2.55;93.48
74270;BME280;62754;48.252;11.654;2022-11-13T02:42:50;97063.19;;;2.51;93.18
74270;BME280;62754;48.252;11.654;2022-11-13T02:45:16;97059.53;;;2.60;92.91
74270;BME280;62754;48.252;11.654;2022-11-13T02:47:42;97062.19;;;2.57;93.15
74270;BME280;62754;48.252;11.654;2022-11-13T02:50:09;97058.78;;;2.58;92.86
74270;BME280;62754;48.252;11.654;2022-11-13T02:52:35;97042.06;;;2.51;92.87
74270;BME280;62754;48.252;11.654;2022-11-13T02:55:01;97038.19;;;2.39;93.53
74270;BME280;62754;48.252;11.654;2022-11-13T02:57:27;97035.59;;;2.40;92.91
74270;BME280;62754;48.252;11.654;2022-11-13T02:59:53;97037.88;;;2.48;92.74
74270;BME280;62754;48.252;11.654;2022-11-13T03:02:19;97036.53;;;2.38;92.85
74270;BME280;62754;48.252;11.654;2022-11-13T03:04:44;97034.03;;;2.36;92.75
74270;BME280;62754;48.252;11.654;2022-11-13T03:07:10;97030.97;;;2.27;93.07
74270;BME280;62754;48.252;11.654;2022-11-13T03:09:36;97031.69;;;2.30;92.85
74270;BME280;62754;48.252;11.654;2022-11-13T03:12:02;97026.78;;;2.24;93.05
74270;BME280;62754;48.252;11.654;2022-11-13T03:14:28;97019.34;;;2.20;93.13
74270;BME280;62754;48.252;11.654;2022-11-13T03:16:54;97017.19;;;2.08;93.69
74270;BME280;62754;48.252;11.654;2022-11-13T03:19:19;97015.56;;;2.05;93.61
74270;BME280;62754;48.252;11.654;2022-11-13T03:21:45;97015.06;;;2.20;93.00
74270;BME280;62754;48.252;11.654;2022-11-13T03:24:11;97012.75;;;2.13;92.86
74270;BME280;62754;48.252;11.654;2022-11-13T03:26:36;97016.34;;;2.07;93.20
74270;BME280;62754;48.252;11.654;2022-11-13T03:29:02;97018.81;;;2.09;92.71
74270;BME280;62754;48.252;11.654;2022-11-13T03:31:28;97024.97;;;2.28;92.47
74270;BME280;62754;48.252;11.654;2022-11-13T03:33:54;97012.53;;;2.20;91.90
74270;BME280;62754;48.252;11.654;2022-11-13T03:36:19;97012.72;;;2.14;92.04
74270;BME280;62754;48.252;11.654;2022-11-13T03:38:45;97000.84;;;2.15;92.39
74270;BME280;62754;48.252;11.654;2022-11-13T03:41:11;96997.91;;;2.27;92.14
74270;BME280;62754;48.252;11.654;2022-11-13T03:43:37;96996.16;;;2.03;93.49
74270;BME280;62754;48.252;11.654;2022-11-13T03:46:02;96990.88;;;2.09;92.81
74270;BME280;62754;48.252;11.654;2022-11-13T03:48:28;96987.19;;;1.92;93.00
74270;BME280;62754;48.252;11.654;2022-11-13T03:50:54;96987.00;;;1.97;93.60
74270;BME280;62754;48.252;11.654;2022-11-13T03:53:20;96988.91;;;1.90;93.97
74270;BME280;62754;48.252;11.654;2022-11-13T03:55:46;96987.22;;;1.91;93.63
74270;BME280;62754;48.252;11.654;2022-11-13T03:58:12;96978.22;;;2.07;92.75
74270;BME280;62754;48.252;11.654;2022-11-13T04:00:39;96977.91;;;2.16;92.59
74270;BME280;62754;48.252;11.654;2022-11-13T04:03:06;96982.38;;;2.10;92.52
74270;BME280;62754;48.252;11.654;2022-11-13T04:05:32;96980.69;;;2.09;92.64
74270;BME280;62754;48.252;11.654;2022-11-13T04:07:58;96978.34;;;2.29;92.76
74270;BME280;62754;48.252;11.654;2022-11-13T04:10:24;96973.31;;;2.01;92.97
74270;BME280;62754;48.252;11.654;2022-11-13T04:12:50;96971.44;;;2.08;92.71
74270;BME280;62754;48.252;11.654;2022-11-13T04:15:16;96961.41;;;2.03;92.45
74270;BME280;62754;48.252;11.654;2022-11-13T04:17:42;96963.28;;;1.98;92.84
74270;BME280;62754;48.252;11.654;2022-11-13T04:20:08;96960.59;;;2.03;92.58
74270;BME280;62754;48.252;11.654;2022-11-13T04:22:34;96953.97;;;1.97;93.63
74270;BME280;62754;48.252;11.654;2022-11-13T04:25:00;96961.41;;;2.03;93.35
74270;BME280;62754;48.252;11.654;2022-11-13T04:27:26;96956.91;;;2.11;93.51
74270;BME280;62754;48.252;11.654;2022-11-13T04:29:52;96955.28;;;2.09;93.58
74270;BME280;62754;48.252;11.654;2022-11-13T04:32:18;96958.03;;;2.03;93.36
74270;BME280;62754;48.252;11.654;2022-11-13T04:34:43;96961.78;;;2.17;93.13
74270;BME280;62754;48.252;11.654;2022-11-13T04:37:09;96961.16;;;2.11;92.70
74270;BME280;62754;48.252;11.654;2022-11-13T04:39:35;96961.91;;;2.14;92.59
74270;BME280;62754;48.252;11.654;2022-11-13T04:42:01;96960.38;;;2.09;92.99
74270;BME280;62754;48.252;11.654;2022-11-13T04:44:27;96955.41;;;2.06;92.97
74270;BME280;62754;48.252;11.654;2022-11-13T04:46:52;96943.06;;;2.20;92.46
74270;BME280;62754;48.252;11.654;2022-11-13T04:49:18;96941.06;;;2.05;92.48
74270;BME280;62754;48.252;11.654;2022-11-13T04:51:44;96932.63;;;2.03;92.62
74270;BME280;62754;48.252;11.654;2022-11-13T04:54:10;96928.16;;;2.09;92.55
74270;BME280;62754;48.252;11.654;2022-11-13T04:56:35;96934.94;;;2.09;92.46
74270;BME280;62754;48.252;11.654;2022-11-13T04:59:01;96926.53;;;2.08;92.32
74270;BME280;62754;48.252;11.654;2022-11-13T05:01:27;96917.28;;;2.06;92.51
74270;BME280;62754;48.252;11.654;2022-11-13T05:03:53;96918.84;;;2.10;91.95
74270;BME280;62754;48.252;11.654;2022-11-13T05:06:18;96924.38;;;1.96;92.12
74270;BME280;62754;48.252;11.654;2022-11-13T05:08:44;96914.13;;;1.99;92.44
74270;BME280;62754;48.252;11.654;2022-11-13T05:11:10;96915.13;;;1.93;92.43
74270;BME280;62754;48.252;11.654;2022-11-13T05:13:36;96922.69;;;1.97;93.05
74270;BME280;62754;48.252;11.654;2022-11-13T05:16:07;96916.09;;;1.89;92.49
74270;BME280;62754;48.252;11.654;2022-11-13T05:18:34;96930.81;;;1.81;93.55
74270;BME280;62754;48.252;11.654;2022-11-13T05:21:00;96927.22;;;1.87;92.87
74270;BME280;62754;48.252;11.654;2022-11-13T05:23:26;96923.84;;;1.86;93.03
74270;BME280;62754;48.252;11.654;2022-11-13T05:25:52;96914.31;;;1.67;93.09
74270;BME280;62754;48.252;11.654;2022-11-13T05:28:18;96921.25;;;1.88;93.23
74270;BME280;62754;48.252;11.654;2022-11-13T05:30:44;96909.56;;;1.82;93.50
74270;BME280;62754;48.252;11.654;2022-11-13T05:33:09;96903.59;;;1.85;93.56
74270;BME280;62754;48.252;11.654;2022-11-13T05:35:35;96914.75;;;1.79;93.46
74270;BME280;62754;48.252;11.654;2022-11-13T05:38:01;96904.50;;;1.82;93.25
74270;BME280;62754;48.252;11.654;2022-11-13T05:40:28;96894.91;;;1.90;93.08
74270;BME280;62754;48.252;11.654;2022-11-13T05:42:54;96898.50;;;1.85;92.79
74270;BME280;62754;48.252;11.654;2022-11-13T05:45:21;96886.88;;;2.03;92.56
74270;BME280;62754;48.252;11.654;2022-11-13T05:47:46;96883.63;;;1.99;91.79
74270;BME280;62754;48.252;11.654;2022-11-13T05:50:12;96875.31;;;1.94;92.50
74270;BME280;62754;48.252;11.654;2022-11-13T05:52:38;96878.09;;;1.86;91.93
74270;BME280;62754;48.252;11.654;2022-11-13T05:55:04;96869.56;;;1.89;91.64
74270;BME280;62754;48.252;11.654;2022-11-13T05:57:30;96874.69;;;1.87;92.36
74270;BME280;62754;48.252;11.654;2022-11-13T05:59:56;96868.94;;;1.82;92.48
74270;BME280;62754;48.252;11.654;2022-11-13T06:02:22;96868.47;;;1.71;92.64
74270;BME280;62754;48.252;11.654;2022-11-13T06:04:48;96872.91;;;1.65;92.62
74270;BME280;62754;48.252;11.654;2022-11-13T06:07:14;96874.03;;;1.56;93.35
74270;BME280;62754;48.252;11.654;2022-11-13T06:09:40;96875.13;;;1.49;93.14
74270;BME280;62754;48.252;11.654;2022-11-13T06:12:05;96869.25;;;1.47;94.26
74270;BME280;62754;48.252;11.654;2022-11-13T06:14:31;96869.41;;;1.69;93.30
74270;BME280;62754;48.252;11.654;2022-11-13T06:16:57;96857.53;;;1.69;92.62
74270;BME280;62754;48.252;11.654;2022-11-13T06:19:23;96855.75;;;1.71;92.52
74270;BME280;62754;48.252;11.654;2022-11-13T06:21:49;96860.06;;;1.69;92.97
74270;BME280;62754;48.252;11.654;2022-11-13T06:24:14;96854.91;;;1.71;92.83
74270;BME280;62754;48.252;11.654;2022-11-13T06:26:40;96845.50;;;1.74;92.01
74270;BME280;62754;48.252;11.654;2022-11-13T06:29:09;96837.28;;;1.66;92.28
74270;BME280;62754;48.252;11.654;2022-11-13T06:31:36;96842.03;;;1.77;91.82
74270;BME280;62754;48.252;11.654;2022-11-13T06:34:03;96840.78;;;1.64;91.70
74270;BME280;62754;48.252;11.654;2022-11-13T06:36:29;96844.25;;;1.61;92.56
74270;BME280;62754;48.252;11.654;2022-11-13T06:38:56;96842.78;;;1.54;92.50
74270;BME280;62754;48.252;11.654;2022-11-13T06:41:25;96828.59;;;1.73;92.12
74270;BME280;62754;48.252;11.654;2022-11-13T06:43:52;96818.75;;;1.64;92.60
74270;BME280;62754;48.252;11.654;2022-11-13T06:46:25;96823.59;;;1.70;91.90
74270;BME280;62754;48.252;11.654;2022-11-13T06:48:51;96827.06;;;1.69;92.07
74270;BME280;62754;48.252;11.654;2022-11-13T06:51:19;96817.59;;;1.48;92.30
74270;BME280;62754;48.252;11.654;2022-11-13T06:53:46;96818.41;;;1.49;92.17
74270;BME280;62754;48.252;11.654;2022-11-13T06:56:12;96815.38;;;1.39;91.83
74270;BME280;62754;48.252;11.654;2022-11-13T06:58:39;96805.94;;;1.67;92.04
74270;BME280;62754;48.252;11.654;2022-11-13T07:01:10;96796.56;;;1.69;90.72
74270;BME280;62754;48.252;11.654;2022-11-13T07:03:37;96793.25;;;1.67;91.69
74270;BME280;62754;48.252;11.654;2022-11-13T07:06:04;96799.75;;;1.74;91.81
74270;BME280;62754;48.252;11.654;2022-11-13T07:08:30;96798.31;;;1.92;90.49
74270;BME280;62754;48.252;11.654;2022-11-13T07:10:57;96796.97;;;1.82;90.60
74270;BME280;62754;48.252;11.654;2022-11-13T07:13:24;96775.00;;;1.81;90.70
74270;BME280;62754;48.252;11.654;2022-11-13T07:15:50;96791.56;;;1.66;90.40
74270;BME280;62754;48.252;11.654;2022-11-13T07:18:16;96813.09;;;1.81;90.83
74270;BME280;62754;48.252;11.654;2022-11-13T07:20:42;96795.81;;;1.90;90.33
74270;BME280;62754;48.252;11.654;2022-11-13T07:23:08;96798.63;;;1.83;90.83
74270;BME280;62754;48.252;11.654;2022-11-13T07:25:34;96788.00;;;1.72;90.40
74270;BME280;62754;48.252;11.654;2022-11-13T07:28:00;96782.56;;;1.33;92.76
74270;BME280;62754;48.252;11.654;2022-11-13T07:30:26;96778.94;;;1.40;92.82
74270;BME280;62754;48.252;11.654;2022-11-13T07:32:52;96783.34;;;1.35;91.40
74270;BME280;62754;48.252;11.654;2022-11-13T07:35:17;96782.91;;;1.22;92.45
74270;BME280;62754;48.252;11.654;2022-11-13T07:37:43;96795.53;;;1.50;92.28
74270;BME280;62754;48.252;11.654;2022-11-13T07:40:10;96793.09;;;1.72;91.73
74270;BME280;62754;48.252;11.654;2022-11-13T07:42:36;96791.69;;;1.63;91.24
74270;BME280;62754;48.252;11.654;2022-11-13T07:45:03;96812.78;;;1.65;90.89
74270;BME280;62754;48.252;11.654;2022-11-13T07:47:29;96812.78;;;1.65;90.55
74270;BME280;62754;48.252;11.654;2022-11-13T07:49:55;96817.28;;;1.57;89.91
74270;BME280;62754;48.252;11.654;2022-11-13T07:52:20;96819.22;;;1.75;90.99
74270;BME280;62754;48.252;11.654;2022-11-13T07:54:46;96824.56;;;1.68;90.64
74270;BME280;62754;48.252;11.654;2022-11-13T07:57:12;96837.94;;;1.73;90.29
74270;BME280;62754;48.252;11.654;2022-11-13T07:59:38;96834.09;;;1.86;90.24
74270;BME280;62754;48.252;11.654;2022-11-13T08:02:05;96817.22;;;1.85;90.38
74270;BME280;62754;48.252;11.654;2022-11-13T08:04:31;96816.03;;;1.93;90.18
74270;BME280;62754;48.252;11.654;2022-11-13T08:06:57;96809.69;;;2.05;89.33
74270;BME280;62754;48.252;11.654;2022-11-13T08:09:22;96818.19;;;1.81;89.53
74270;BME280;62754;48.252;11.654;2022-11-13T08:11:48;96824.22;;;2.02;90.63
74270;BME280;62754;48.252;11.654;2022-11-13T08:14:14;96813.53;;;2.17;89.36
74270;BME280;62754;48.252;11.654;2022-11-13T08:16:40;96811.41;;;2.28;88.86
74270;BME280;62754;48.252;11.654;2022-11-13T08:19:05;96811.25;;;2.32;88.14
74270;BME280;62754;48.252;11.654;2022-11-13T08:21:31;96806.69;;;2.42;88.40
74270;BME280;62754;48.252;11.654;2022-11-13T08:23:57;96796.28;;;2.48;87.92
74270;BME280;62754;48.252;11.654;2022-11-13T08:26:23;96794.81;;;2.64;87.99
74270;BME280;62754;48.252;11.654;2022-11-13T08:28:48;96790.16;;;2.54;88.14
74270;BME280;62754;48.252;11.654;2022-11-13T08:31:15;96779.84;;;2.78;87.02
74270;BME280;62754;48.252;11.654;2022-11-13T08:33:41;96776.25;;;2.84;87.02
74270;BME280;62754;48.252;11.654;2022-11-13T08:36:08;96773.59;;;2.87;87.33
74270;BME280;62754;48.252;11.654;2022-11-13T08:38:35;96775.97;;;2.70;87.16
74270;BME280;62754;48.252;11.654;2022-11-13T08:41:03;96769.81;;;2.75;86.70
74270;BME280;62754;48.252;11.654;2022-11-13T08:43:29;96766.84;;;2.86;86.33
74270;BME280;62754;48.252;11.654;2022-11-13T08:45:55;96774.34;;;3.11;86.00
74270;BME280;62754;48.252;11.654;2022-11-13T08:48:22;96781.94;;;2.91;86.29
74270;BME280;62754;48.252;11.654;2022-11-13T08:50:52;96787.84;;;2.91;85.59
74270;BME280;62754;48.252;11.654;2022-11-13T08:53:18;96789.81;;;2.84;86.36
74270;BME280;62754;48.252;11.654;2022-11-13T08:55:44;96786.25;;;2.88;86.45
74270;BME280;62754;48.252;11.654;2022-11-13T08:58:10;96778.38;;;3.16;86.26
74270;BME280;62754;48.252;11.654;2022-11-13T09:00:36;96782.59;;;3.38;85.98
74270;BME280;62754;48.252;11.654;2022-11-13T09:03:01;96781.91;;;3.74;86.63
74270;BME280;62754;48.252;11.654;2022-11-13T09:05:28;96780.25;;;3.73;85.51
74270;BME280;62754;48.252;11.654;2022-11-13T09:07:57;96778.03;;;3.86;86.42
74270;BME280;62754;48.252;11.654;2022-11-13T09:10:24;96768.59;;;4.07;83.30
74270;BME280;62754;48.252;11.654;2022-11-13T09:13:02;96759.09;;;4.29;84.42
74270;BME280;62754;48.252;11.654;2022-11-13T09:15:30;96752.97;;;4.33;84.12
74270;BME280;62754;48.252;11.654;2022-11-13T09:17:57;96755.22;;;4.02;85.13
74270;BME280;62754;48.252;11.654;2022-11-13T09:20:24;96754.94;;;3.89;86.02
74270;BME280;62754;48.252;11.654;2022-11-13T09:23:02;96756.47;;;3.93;85.96
74270;BME280;62754;48.252;11.654;2022-11-13T09:25:29;96755.72;;;4.10;84.88
74270;BME280;62754;48.252;11.654;2022-11-13T09:27:57;96759.44;;;4.21;84.87
74270;BME280;62754;48.252;11.654;2022-11-13T09:30:23;96760.50;;;4.36;84.71
74270;BME280;62754;48.252;11.654;2022-11-13T09:32:56;96762.44;;;4.50;83.14
74270;BME280;62754;48.252;11.654;2022-11-13T09:35:24;96758.19;;;4.67;83.07
74270;BME280;62754;48.252;11.654;2022-11-13T09:37:51;96752.09;;;4.34;83.58
74270;BME280;62754;48.252;11.654;2022-11-13T09:40:25;96742.91;;;4.49;83.28
74270;BME280;62754;48.252;11.654;2022-11-13T09:42:52;96756.97;;;4.57;84.69
74270;BME280;62754;48.252;11.654;2022-11-13T09:45:18;96743.69;;;4.87;83.16
74270;BME280;62754;48.252;11.654;2022-11-13T09:47:45;96731.88;;;5.20;84.25
74270;BME280;62754;48.252;11.654;2022-11-13T09:50:22;96729.69;;;5.12;83.17
74270;BME280;62754;48.252;11.654;2022-11-13T09:52:49;96728.56;;;5.35;84.46
74270;BME280;62754;48.252;11.654;2022-11-13T09:55:17;96730.38;;;5.50;81.89
74270;BME280;62754;48.252;11.654;2022-11-13T09:58:08;96727.75;;;5.52;81.73
74270;BME280;62754;48.252;11.654;2022-11-13T10:00:37;96732.03;;;5.84;81.65
74270;BME280;62754;48.252;11.654;2022-11-13T10:03:21;96726.69;;;5.56;82.08
74270;BME280;62754;48.252;11.654;2022-11-13T10:06:10;96733.06;;;5.13;82.92
74270;BME280;62754;48.252;11.654;2022-11-13T10:14:21;96705.84;;;5.29;83.66
74270;BME280;62754;48.252;11.654;2022-11-13T10:17:20;96700.75;;;5.46;82.92
74270;BME280;62754;48.252;11.654;2022-11-13T10:19:56;96694.53;;;5.35;82.94
74270;BME280;62754;48.252;11.654;2022-11-13T10:25:02;96704.75;;;5.52;82.76
74270;BME280;62754;48.252;11.654;2022-11-13T10:27:29;96702.25;;;5.50;82.83
74270;BME280;62754;48.252;11.654;2022-11-13T10:29:55;96703.88;;;5.68;83.47
74270;BME280;62754;48.252;11.654;2022-11-13T10:32:24;96692.47;;;5.58;81.97
74270;BME280;62754;48.252;11.654;2022-11-13T10:34:59;96685.69;;;5.57;83.08
74270;BME280;62754;48.252;11.654;2022-11-13T10:40:24;96663.38;;;5.61;82.97
74270;BME280;62754;48.252;11.654;2022-11-13T10:42:50;96659.00;;;5.63;83.12
74270;BME280;62754;48.252;11.654;2022-11-13T10:45:19;96668.06;;;5.68;83.36
74270;BME280;62754;48.252;11.654;2022-11-13T10:47:47;96662.44;;;5.79;83.51
74270;BME280;62754;48.252;11.654;2022-11-13T10:50:39;96662.00;;;6.04;83.35
74270;BME280;62754;48.252;11.654;2022-11-13T10:53:14;96651.59;;;6.07;82.71
74270;BME280;62754;48.252;11.654;2022-11-13T10:55:41;96635.00;;;6.30;82.87
74270;BME280;62754;48.252;11.654;2022-11-13T10:58:15;96635.13;;;6.58;79.77
74270;BME280;62754;48.252;11.654;2022-11-13T11:00:43;96629.41;;;6.68;79.49
74270;BME280;62754;48.252;11.654;2022-11-13T11:03:20;96624.34;;;7.12;78.60
74270;BME280;62754;48.252;11.654;2022-11-13T11:05:57;96615.06;;;7.68;77.50
74270;BME280;62754;48.252;11.654;2022-11-13T11:08:32;96619.88;;;7.87;77.42
74270;BME280;62754;48.252;11.654;2022-11-13T11:11:17;96610.19;;;7.78;75.79
74270;BME280;62754;48.252;11.654;2022-11-13T11:13:43;96613.75;;;7.89;75.89
74270;BME280;62754;48.252;11.654;2022-11-13T11:16:13;96605.56;;;8.52;76.25
74270;BME280;62754;48.252;11.654;2022-11-13T11:18:46;96596.16;;;8.78;73.44
74270;BME280;62754;48.252;11.654;2022-11-13T11:21:20;96588.63;;;8.62;74.11
74270;BME280;62754;48.252;11.654;2022-11-13T11:24:04;96591.63;;;8.69;73.42
74270;BME280;62754;48.252;11.654;2022-11-13T11:26:35;96585.63;;;9.07;70.76
74270;BME280;62754;48.252;11.654;2022-11-13T11:29:16;96583.75;;;8.97;70.76
74270;BME280;62754;48.252;11.654;2022-11-13T11:31:49;96590.97;;;9.04;71.89
74270;BME280;62754;48.252;11.654;2022-11-13T11:37:16;96573.19;;;9.65;71.52
74270;BME280;62754;48.252;11.654;2022-11-13T11:39:50;96557.69;;;9.90;71.97
74270;BME280;62754;48.252;11.654;2022-11-13T11:47:31;96552.50;;;10.15;70.21
74270;BME280;62754;48.252;11.654;2022-11-13T11:49:58;96542.38;;;10.60;67.79
74270;BME280;62754;48.252;11.654;2022-11-13T11:55:30;96530.72;;;10.78;67.79
74270;BME280;62754;48.252;11.654;2022-11-13T12:00:31;96526.91;;;11.17;65.06
74270;BME280;62754;48.252;11.654;2022-11-13T12:03:19;96521.28;;;11.00;65.49
74270;BME280;62754;48.252;11.654;2022-11-13T12:08:35;96528.72;;;11.27;65.18
74270;BME280;62754;48.252;11.654;2022-11-13T12:11:16;96523.56;;;11.38;64.51
74270;BME280;62754;48.252;11.654;2022-11-13T12:19:09;96520.56;;;10.98;66.93
74270;BME280;62754;48.252;11.654;2022-11-13T12:21:48;96509.56;;;10.96;67.63
74270;BME280;62754;48.252;11.654;2022-11-13T12:35:18;96482.88;;;12.39;65.70
74270;BME280;62754;48.252;11.654;2022-11-13T12:40:44;96468.03;;;12.94;63.44
74270;BME280;62754;48.252;11.654;2022-11-13T12:45:52;96450.25;;;13.40;61.12
74270;BME280;62754;48.252;11.654;2022-11-13T12:50:58;96456.34;;;13.29;60.83
74270;BME280;62754;48.252;11.654;2022-11-13T12:53:27;96450.22;;;13.70;60.09
74270;BME280;62754;48.252;11.654;2022-11-13T12:55:58;96453.00;;;13.39;61.36
74270;BME280;62754;48.252;11.654;2022-11-13T12:58:28;96444.41;;;13.48;61.12
74270;BME280;62754;48.252;11.654;2022-11-13T13:04:12;96442.31;;;13.72;60.45
74270;BME280;62754;48.252;11.654;2022-11-13T13:10:10;96449.03;;;13.84;60.93
74270;BME280;62754;48.252;11.654;2022-11-13T13:15:31;96431.16;;;13.91;60.13
74270;BME280;62754;48.252;11.654;2022-11-13T13:18:02;96428.03;;;14.25;60.29
74270;BME280;62754;48.252;11.654;2022-11-13T13:20:32;96421.38;;;14.04;59.86
74270;BME280;62754;48.252;11.654;2022-11-13T13:22:59;96411.94;;;13.74;60.82
74270;BME280;62754;48.252;11.654;2022-11-13T13:25:33;96410.84;;;13.76;60.01
74270;BME280;62754;48.252;11.654;2022-11-13T13:28:15;96414.00;;;13.30;62.73
74270;BME280;62754;48.252;11.654;2022-11-13T13:31:00;96405.53;;;13.28;61.66
74270;BME280;62754;48.252;11.654;2022-11-13T13:34:11;96407.88;;;13.31;60.91
74270;BME280;62754;48.252;11.654;2022-11-13T13:39:53;96412.91;;;12.72;62.81
74270;BME280;62754;48.252;11.654;2022-11-13T13:47:59;96402.00;;;12.69;63.07
74270;BME280;62754;48.252;11.654;2022-11-13T13:50:33;96396.28;;;12.45;63.46
74270;BME280;62754;48.252;11.654;2022-11-13T13:53:04;96397.09;;;12.45;64.10
74270;BME280;62754;48.252;11.654;2022-11-13T13:55:34;96389.22;;;12.47;63.82
74270;BME280;62754;48.252;11.654;2022-11-13T13:58:06;96375.97;;;12.40;63.59
74270;BME280;62754;48.252;11.654;2022-11-13T14:00:33;96366.09;;;12.24;64.68
74270;BME280;62754;48.252;11.654;2022-11-13T14:03:00;96353.88;;;12.06;65.34
74270;BME280;62754;48.252;11.654;2022-11-13T14:07:52;96359.09;;;11.94;65.87
74270;BME280;62754;48.252;11.654;2022-11-13T14:10:20;96348.28;;;12.01;65.60
74270;BME280;62754;48.252;11.654;2022-11-13T14:12:46;96346.81;;;12.08;65.51
74270;BME280;62754;48.252;11.654;2022-11-13T14:17:45;96353.63;;;11.88;66.45
74270;BME280;62754;48.252;11.654;2022-11-13T14:20:11;96357.31;;;11.63;66.73
74270;BME280;62754;48.252;11.654;2022-11-13T14:22:38;96356.09;;;11.46;67.82
74270;BME280;62754;48.252;11.654;2022-11-13T14:25:11;96353.25;;;11.50;67.26
74270;BME280;62754;48.252;11.654;2022-11-13T14:27:41;96353.16;;;11.40;67.96
74270;BME280;62754;48.252;11.654;2022-11-13T14:30:28;96352.81;;;11.33;68.39